Nearby METAR Reports

 

KSJC - San Jose, California, USA
Distance from station: NE 14km
Updated: 24/07/2024 08:53
Few Clouds
Few Clouds
 Wind from varies
Wind: varies 6 km/h
Temperature: 27°C
Dew Point: 12°C
Humidity: 39%
Barometer: 1016.6 hPa
Clouds: Few Clouds
Visibility: 16 km
Cloud details: Few Clouds 3048 m
Few Clouds 4267 m
2024/07/24 15:53 KSJC 241553Z VRB03KT 10SM FEW100 FEW140 27/12 A3002 RMK AO2 SLP164 T02670122
KNUQ - Moffett Nas/Mtn, California, USA
Distance from station: N 14km
Updated: 24/07/2024 09:15
Clear
Clear
 Wind from N
Wind: N 7 km/h
Temperature: 22°C
Dew Point: 17°C
Humidity: 73%
Barometer: 1016.6 hPa
Clouds: Clear
Visibility: 14 km
2024/07/24 16:15 KNUQ 241615Z AUTO 36004KT 9SM CLR 22/17 A3002 RMK AO2
 
KPAO - Palo Alto, California, USA
Distance from station: NNW 23km
Updated: 24/07/2024 08:47
Clear
Clear
 Wind from N
Wind: N 11 km/h
Temperature: 21°C
Dew Point: 16°C
Humidity: 73%
Barometer: 1016.9 hPa
Clouds: Clear
Visibility: 16 km
2024/07/24 15:47 KPAO 241547Z 35006KT 10SM SKC 21/16 A3003
KRHV - San Jose/Reid, California, USA
Distance from station: ENE 19km
Updated: 24/07/2024 08:47
Clear
Clear
 Wind from calm
Wind: Calm
Temperature: 24°C
Dew Point: 12°C
Humidity: 47%
Barometer: 1016.9 hPa
Clouds: Clear
Visibility: 16 km
2024/07/24 15:47 KRHV 241547Z 00000KT 10SM SKC 24/12 A3003
 
KOAK - Oakland, California, USA
Distance from station: NNW 50km
Updated: 24/07/2024 08:53
Partly cloudy
Partly cloudy
 Wind from NW
Wind: NW 11 km/h
Temperature: 22°C
Dew Point: 16°C
Humidity: 69%
Barometer: 1016.9 hPa
Clouds: Partly cloudy
Visibility: 16 km
Cloud details: Partly cloudy 7620 m
2024/07/24 15:53 KOAK 241553Z 31006KT 10SM SCT250 22/16 A3003 RMK AO2 SLP167 T02170156
KSQL - San Carlos Airpo, California, USA
Distance from station: NW 34km
Updated: 24/07/2024 08:47
Clear
Clear
 Wind from NNE
Wind: NNE 9 km/h
Temperature: 21°C
Dew Point: 15°C
Humidity: 69%
Barometer: 1016.9 hPa
Clouds: Clear
Visibility: 16 km
2024/07/24 15:47 KSQL 241547Z 03005KT 10SM CLR 21/15 A3003
 
KSFO - San Francisco, California, USA
Distance from station: NW 49km
Updated: 24/07/2024 08:56
Few Clouds
Few Clouds
 Wind from NW
Wind: NW 7 km/h
Temperature: 19°C
Dew Point: 14°C
Humidity: 73%
Barometer: 1016.6 hPa
Clouds: Few Clouds
Visibility: 16 km
Cloud details: Few Clouds 6096 m
2024/07/24 15:56 KSFO 241556Z 32004KT 10SM FEW200 19/14 A3002 RMK AO2 SLP167 T01940139
KE16 - San Martin, California, USA
Distance from station: ESE 43km
Updated: 24/07/2024 09:15
Clear
Clear
 Wind from SSE
Wind: SSE 7 km/h
Temperature: 23°C
Dew Point: 13°C
Humidity: 53%
Barometer: 1017.9 hPa
Clouds: Clear
Visibility: 16 km
2024/07/24 16:15 KE16 241615Z AUTO 15004KT 10SM CLR 23/13 A3006 RMK AO2
 
KWVI - Watsonville, California, USA
Distance from station: SSE 44km
Updated: 24/07/2024 08:53
Clear
Clear
 Wind from calm
Wind: Calm
Temperature: 21°C
Dew Point: 14°C
Humidity: 64%
Barometer: 1017.6 hPa
Clouds: Clear
Visibility: 16 km
2024/07/24 15:53 KWVI 241553Z AUTO 00000KT 10SM CLR 21/14 A3005 RMK AO2 SLP174 T02060139
KHAF - Half Moon Bay, California, USA
Distance from station: WNW 50km
Updated: 24/07/2024 09:15
Mist, Clear
Mist, Clear
 Wind from S
Wind: S 13 km/h
Temperature: 18°C
Dew Point: 16°C
Humidity: 88%
Barometer: 1017.6 hPa
Summary: Mist
Clouds: Clear
Visibility: 8 km
2024/07/24 16:15 KHAF 241615Z AUTO 18007KT 5SM BR CLR 18/16 A3005 RMK AO2
 
KHWD - Hayward, California, USA
Distance from station: N 44km
Updated: 24/07/2024 08:54
Clear
Clear
 Wind from WNW
Wind: WNW 7 km/h
Temperature: 23°C
Dew Point: 13°C
Humidity: 53%
Barometer: 1016.6 hPa
Clouds: Clear
Visibility: 16 km
2024/07/24 15:54 KHWD 241554Z 29004KT 10SM CLR 23/13 A3002 RMK AO2 SLP173 T02280133
KLVK - Livermore, California, USA
Distance from station: NNE 51km
Updated: 24/07/2024 08:53
Clear
Clear
 Wind from calm
Wind: Calm
Temperature: 27°C
Dew Point: 11°C
Humidity: 37%
Barometer: 1016.3 hPa
Clouds: Clear
Visibility: 16 km
2024/07/24 15:53 KLVK 241553Z 00000KT 10SM CLR 27/11 A3001 RMK AO2 SLP156 T02670111